createdAt,value
2022-11-26T00:02:33.918Z,67.50
2022-11-26T00:13:01.778Z,67.20
2022-11-26T00:23:30.101Z,66.72
2022-11-26T00:33:57.696Z,67.06
2022-11-26T00:44:26.720Z,67.56
2022-11-26T00:54:54.211Z,67.91
2022-11-26T01:05:22.830Z,67.69
2022-11-26T01:15:48.796Z,67.36
2022-11-26T01:26:21.755Z,66.98
2022-11-26T01:36:49.075Z,66.74
2022-11-26T01:47:25.576Z,66.65
2022-11-26T01:57:53.750Z,66.42
2022-11-26T02:08:21.577Z,65.96
2022-11-26T02:18:59.781Z,65.80
2022-11-26T02:29:31.985Z,65.73
2022-11-26T02:40:00.572Z,65.79
2022-11-26T02:50:32.104Z,65.88
2022-11-26T03:01:00.987Z,65.91
2022-11-26T03:11:29.527Z,66.40
2022-11-26T03:21:56.900Z,66.52
2022-11-26T03:32:24.238Z,66.21
2022-11-26T03:42:51.564Z,66.32
2022-11-26T03:53:18.858Z,66.59
2022-11-26T04:03:46.154Z,66.16
2022-11-26T04:14:13.572Z,65.86
2022-11-26T04:24:41.196Z,65.66
2022-11-26T04:35:10.303Z,66.01
2022-11-26T04:45:37.568Z,66.64
2022-11-26T04:56:05.041Z,66.72
2022-11-26T05:06:32.550Z,66.92
2022-11-26T05:16:59.832Z,66.83
2022-11-26T05:27:27.139Z,66.99
2022-11-26T05:37:54.473Z,67.01
2022-11-26T05:48:21.789Z,67.16
2022-11-26T05:58:49.073Z,67.08
2022-11-26T06:09:16.760Z,67.04
2022-11-26T06:19:44.180Z,66.82
2022-11-26T06:30:14.103Z,66.65
2022-11-26T06:40:41.349Z,66.50
2022-11-26T06:51:10.807Z,67.03
2022-11-26T07:01:38.194Z,67.79
2022-11-26T07:12:05.846Z,68.05
2022-11-26T07:22:33.147Z,68.01
2022-11-26T07:33:00.815Z,68.21
2022-11-26T07:43:28.073Z,68.38
2022-11-26T07:53:56.275Z,68.70
2022-11-26T08:04:23.554Z,68.88
2022-11-26T08:14:50.909Z,70.50
2022-11-26T08:25:18.842Z,70.69
2022-11-26T08:36:06.219Z,70.63
2022-11-26T08:46:33.898Z,71.58
2022-11-26T08:57:01.523Z,72.14
2022-11-26T09:07:28.998Z,72.31
2022-11-26T09:17:56.456Z,72.80
2022-11-26T09:28:23.851Z,73.06
2022-11-26T09:38:54.296Z,73.33
2022-11-26T09:49:23.003Z,73.79
2022-11-26T09:59:50.589Z,74.32
2022-11-26T10:10:23.893Z,74.79
2022-11-26T10:21:05.905Z,74.92
2022-11-26T10:31:34.956Z,75.29
2022-11-26T10:42:12.395Z,75.43
2022-11-26T10:52:40.715Z,75.61
2022-11-26T11:03:28.741Z,75.89
2022-11-26T11:14:27.869Z,76.11
2022-11-26T11:25:02.620Z,76.32
2022-11-26T11:35:31.651Z,76.34
2022-11-26T11:46:24.284Z,76.37
2022-11-26T11:57:00.639Z,76.70
2022-11-26T12:07:36.166Z,76.52
2022-11-26T12:18:14.577Z,76.66
2022-11-26T12:28:51.631Z,76.74
2022-11-26T12:39:28.436Z,76.68
2022-11-26T12:50:14.032Z,77.28
2022-11-26T13:00:41.636Z,76.59
2022-11-26T13:11:23.525Z,76.87
2022-11-26T13:22:17.610Z,76.74
2022-11-26T13:33:25.495Z,76.23
2022-11-26T13:44:18.671Z,75.99
2022-11-26T13:54:52.597Z,75.88
2022-11-26T14:05:20.030Z,75.46
2022-11-26T14:16:02.495Z,75.12
2022-11-26T14:26:34.438Z,75.18
2022-11-26T14:37:03.215Z,75.22
2022-11-26T14:47:30.327Z,75.24
2022-11-26T14:58:07.600Z,75.54
2022-11-26T15:08:36.375Z,75.39
2022-11-26T15:19:05.527Z,75.89
2022-11-26T15:29:35.525Z,76.04
2022-11-26T15:40:23.616Z,75.64
2022-11-26T15:50:54.516Z,75.82
2022-11-26T16:01:25.662Z,75.74
2022-11-26T16:12:01.354Z,75.56
2022-11-26T16:22:33.068Z,75.56
2022-11-26T16:33:00.326Z,75.27
2022-11-26T16:43:27.731Z,75.58
2022-11-26T16:53:55.035Z,75.44
2022-11-26T17:04:22.735Z,75.54
2022-11-26T17:14:50.222Z,76.02
2022-11-26T17:25:17.907Z,75.88
2022-11-26T17:35:45.216Z,75.36
2022-11-26T17:46:16.914Z,75.00
2022-11-26T17:56:44.230Z,74.63
2022-11-26T18:07:15.616Z,74.34
2022-11-26T18:17:48.224Z,74.44
2022-11-26T18:28:17.566Z,74.45
2022-11-26T18:38:44.957Z,74.53
2022-11-26T18:49:12.319Z,74.21
2022-11-26T18:59:40.539Z,74.63
2022-11-26T19:10:11.120Z,74.83
2022-11-26T19:20:38.601Z,74.64
2022-11-26T19:31:08.813Z,74.53
2022-11-26T19:41:36.436Z,73.96
2022-11-26T19:52:03.724Z,73.58
2022-11-26T20:02:31.103Z,73.50
2022-11-26T20:12:58.506Z,73.09
2022-11-26T20:23:25.818Z,73.09
2022-11-26T20:33:53.924Z,72.74
2022-11-26T20:44:23.246Z,72.33
2022-11-26T20:54:53.683Z,71.87
2022-11-26T21:05:23.232Z,71.98
2022-11-26T21:15:51.038Z,71.88
2022-11-26T21:26:21.290Z,71.61
2022-11-26T21:36:48.594Z,71.73
2022-11-26T21:47:17.489Z,71.41
2022-11-26T21:57:44.868Z,71.24
2022-11-26T22:08:12.258Z,71.18
2022-11-26T22:18:40.833Z,71.08
2022-11-26T22:29:08.690Z,71.14
2022-11-26T22:39:36.043Z,69.94
2022-11-26T22:50:04.026Z,69.77
2022-11-26T23:00:49.698Z,70.50
2022-11-26T23:11:19.737Z,70.28
2022-11-26T23:21:47.334Z,71.03
2022-11-26T23:32:14.580Z,71.76
2022-11-26T23:42:42.043Z,71.18
2022-11-26T23:53:09.972Z,71.00
